默认 日期 大小 文件数 浏览量 最新下载 xml
sccm磁力链接相关资源由用户搜索指令自动获取,结果来源于网络,本站不存储任何资料,亦不承担任何责任,请于24小时内删除,搜索到41个磁力,用时0ms。
    {"OpenSans_Bold.tff": 503134, "OpenSans_Regular.tff": 562688, "!IMPORTANT NOTICE!.txt": 85, "Add PDF OpenSans fonts.bat": 263, "system center 2012 r2 configuration manager (sccm) - concepts, utilisation et administration.pdf": 5244077}
创建时间: 2019-01-05 02:07:25 大小:6.02 MB 文件数量:5 热度:5 最近下载:2025-01-22 06:44:03
    ... 7067513, "08.Enroll Certificates for SCCM Servers.mp4": 4793942, "07.Autoenroll ... Certificates for SCCM Clients.mp4": 11587498, "03.Understand ... Network Infrastructure.mp4": 4834419}, "sccm-current-branch-introduction.zip": 1403918}
创建时间: 2019-01-16 06:10:34 大小:117.43 MB 文件数量:19 热度:7 最近下载:2025-09-18 07:40:02
    {"jgtiso.nfo": 6431, "jgt-pscbda.r00": 50000000, "jgt-pscbda.r01": 50000000, "jgt-pscbda.r02": 50000000, "jgt-pscbda.r03": 50000000, "jgt-pscbda.r04": 50000000, "jgt-pscbda.r05": 50000000, "jgt-pscbda.r06": 50000000, "jgt-pscbda.r07": 50000000, "jgt-pscbda ...
创建时间: 2019-01-29 08:54:05 大小:710.42 MB 文件数量:17 热度:9 最近下载:2025-09-18 07:40:01
    {"Please Read Me...!!.txt": 158, "PluralSight Client-Side PowerShell Scripting for Reliable SCCM Deployments.iso": 744126464}
创建时间: 2019-04-01 10:21:39 大小:709.65 MB 文件数量:2 热度:8 最近下载:2025-09-18 07:40:01
    {"Configuration Manager.part1.rar": 420478976, "Configuration Manager.part2.rar": 420478976, "Configuration Manager.part3.rar": 420478976, "Configuration Manager.part4.rar": 420478976, "Configuration Manager.part5.rar": 420478976, "Configuration Manager. ...
创建时间: 2019-04-27 21:40:24 大小:2.81 GB 文件数量:8 热度:4 最近下载:2025-09-18 07:40:02
    {"agcnmsccm.bin": 825429696, "agcnmsccm.cue": 75}
创建时间: 2019-05-13 01:50:04 大小:787.19 MB 文件数量:2 热度:4 最近下载:2025-09-18 07:40:02
    {"BASE": {"DRIVES": {"MT17A-LON-DC1.vhd": 3190034432}, "Base17C-WS16-1607.vhd": 14206803968, "20703-1A-MT17A-LON-DC1.txt": 209, "Base11D-W7-Office10-HV.vhd": 12673396736, "20703-1A-Base17C-WS16-1607.txt": 217, "Base17B-W10-1607-Office2016.vhd": 12725424128 ...
创建时间: 2019-06-25 15:52:07 大小:150.83 GB 文件数量:74 热度:5 最近下载:2025-09-18 07:40:02
    {"z.jpg": 308423, "video.mp4": 1759868360, "More content.txt": 10616, "Tokuten-Book.pdf": 72885724, "H Games & Video.url": 133, "More content read.txt": 10616}
创建时间: 2020-11-22 19:18:48 大小:1.71 GB 文件数量:6 热度:4 最近下载:2025-09-18 07:40:02
    ... Create User Collections.srt": 14269}, "sccm-current-branch-deploy-manage-applications ... Collection.srt": 5472}, "4. Explore SCCM Queries and Collections": {"0. Introduction ... Overview.srt": 3478}, "6. Delegate SCCM Permissions": {"0. Introduction.mp4": 4105599 ...
创建时间: 2021-02-01 11:45:40 大小:3.48 GB 文件数量:571 热度:5 最近下载:2025-09-18 07:40:02
    ... , "70-695 - Prepare SCCM for Deployments_ Configuring SCCM Settings and Components (part ... mp4": 15316547, "70-695 - Prepare SCCM for Deployments_ Understanding OS Deployment ... mp4": 8580967, "70-695 - Prepare SCCM for Deployments_ Identifying the Prerequisites ...
创建时间: 2021-02-15 14:09:50 大小:201.92 MB 文件数量:17 热度:5 最近下载:2025-09-18 07:40:02
    {"Windows Kits.zip": 1231265259, "ADKWinPEAddons.zip": 3014135672, "SSMS-Setup-ENU.exe": 671244128, "MEM_Configmgr_2002.exe": 1195489656, "SQLServer2019-x64-ENU-Dev.iso": 1433974784, "SQLServerReportingServices.exe": 109603496}
创建时间: 2021-03-21 08:08:03 大小:7.13 GB 文件数量:6 热度:3 最近下载:2025-09-18 07:40:01
    {"Windows1909.iso": 4269735936}
创建时间: 2021-03-28 10:23:07 大小:3.98 GB 文件数量:1 热度:5 最近下载:2025-09-18 07:40:01
    {"SCCM-Prereq.zip": 1211996990}
创建时间: 2021-04-03 05:27:32 大小:1.13 GB 文件数量:1 热度:3 最近下载:2025-09-18 07:40:02
    ... & Building MS Endpoint Configuration Manager SCCM": {"10. Conclusion": {"1. Course Recap ... and Building Microsoft Endpoint Manager (SCCM) Assessment": {"1. Test.html": 168 ...
创建时间: 2021-05-05 01:34:44 大小:4.78 GB 文件数量:185 热度:5 最近下载:2025-09-18 07:40:01
    ... ": 2876775, "3-migrate-sccm-2007-2012-m3-slides.pdf ... 3808936, "6-migrate-sccm-2007-2012-m6-slides.pdf ... ": 437463, "10-migrate-sccm-2007-2012-m10-slides.pdf ... ": 760385, "11-migrate-sccm-2007-2012-m11-slides.pdf ... ": 767258, "12-migrate-sccm-2007-2012-m12-slides.pdf ...
创建时间: 2021-08-30 13:37:37 大小:957.69 MB 文件数量:51 热度:8 最近下载:2025-09-18 07:40:01
    ... & Building MS Endpoint Configuration Manager SCCM.torrent": 125070, "designing-building-ms ... & Building MS Endpoint Configuration Manager SCCM": {"10. Conclusion": {"1. Course ... and Building Microsoft Endpoint Manager (SCCM) Assessment": {"1. Test.html": ...
创建时间: 2021-08-30 23:59:46 大小:5.14 GB 文件数量:260 热度:6 最近下载:2025-09-18 07:40:01
    ... - Compliance Settings In Configuration Manager (SCCM)": {"005 Module 76 Auto Remediation ... ": 85016487, "006 Module 12 SCCM Server Prerequisites Installation And Configuration ... ": 12149, "006 Module 12 SCCM Server Prerequisites Installation And Configuration_en ...
创建时间: 2022-01-18 06:31:33 大小:3.45 GB 文件数量:194 热度:4 最近下载:2025-09-18 07:40:01
    {"~Get Your Files Here !": {"Bonus Resources.txt": 386, "8. Software Updates Patching": {"1. Software Updates Patching Overview.mp4": 95065605, "3. Installing And Configuring WSUS Server.mp4": 34373775, "2. Preparing Site For Software Update Deployment. ...
创建时间: 2022-05-08 21:00:32 大小:3.82 GB 文件数量:73 热度:6 最近下载:2025-09-18 07:40:02
    ... via Microsoft Endpoint Configuration Manager SCCM": {"1. Methods Of Operating System ... Reimage OS Deployment using MECM SCCM.mp4": 258077010, "4. Step By ... -Metal Operating System Deployment using SCCM.mp4": 233947763, "7. How to ...
创建时间: 2022-06-04 08:50:46 大小:3.46 GB 文件数量:42 热度:9 最近下载:2025-09-18 07:40:02
    ... and Building Microsoft Endpoint Manager (SCCM) Assessment [CoursesGhar.Com]": {"1. Test ...
创建时间: 2023-08-25 21:21:37 大小:4.76 GB 文件数量:130 热度:5 最近下载:2025-09-18 07:40:01